Time;durP1;ratioP1;P1;durP2;ratioP2;P2;SDS_P1;SDS_P2;PMS_P1;PMS_P2;Temp;Humidity;BMP_temperature;BMP_pressure;BME280_temperature;BME280_humidity;BME280_pressure;Samples;Min_cycle;Max_cycle;Signal;HPM_P1;HPM_P2
2022/09/30 00:01:28;;;;;;;8.55;7.25;;;;;;;;;;5076777;28;20083;-93
2022/09/30 00:03:57;;;;;;;11.73;6.03;;;;;;;;;;5076753;28;20045;-93
2022/09/30 00:06:24;;;;;;;7.70;6.68;;;;;;;;;;5076826;28;20059;-92
2022/09/30 00:08:52;;;;;;;7.55;6.47;;;;;;;;;;5059176;28;20055;-92
2022/09/30 00:11:21;;;;;;;7.32;6.45;;;;;;;;;;5076942;28;20040;-94
2022/09/30 00:13:49;;;;;;;6.28;5.55;;;;;;;;;;5058967;28;20052;-93
2022/09/30 00:16:18;;;;;;;5.80;5.03;;;;;;;;;;5059225;28;20045;-92
2022/09/30 00:18:46;;;;;;;8.07;5.07;;;;;;;;;;5058977;28;20051;-92
2022/09/30 00:21:14;;;;;;;7.80;6.38;;;;;;;;;;5076780;28;20044;-93
2022/09/30 00:23:43;;;;;;;9.68;6.50;;;;;;;;;;5076719;28;20055;-92
2022/09/30 00:26:11;;;;;;;10.38;7.00;;;;;;;;;;5058821;28;20437;-93
2022/09/30 00:28:39;;;;;;;7.13;6.53;;;;;;;;;;5058723;28;20064;-93
2022/09/30 00:31:08;;;;;;;7.20;6.53;;;;;;;;;;5058846;28;20236;-93
2022/09/30 00:33:35;;;;;;;8.88;6.35;;;;;;;;;;5058871;28;20460;-93
2022/09/30 00:36:04;;;;;;;6.40;5.90;;;;;;;;;;5058589;28;20041;-93
2022/09/30 00:38:31;;;;;;;7.85;6.18;;;;;;;;;;5058786;28;20059;-93
2022/09/30 00:41:00;;;;;;;9.65;5.90;;;;;;;;;;5075926;28;20044;-93
2022/09/30 00:43:52;;;;;;;7.63;6.25;;;;;;;;;;5058413;28;20053;-92
2022/09/30 00:46:19;;;;;;;6.22;5.72;;;;;;;;;;5058682;28;20412;-93
2022/09/30 00:48:52;;;;;;;6.78;6.07;;;;;;;;;;5058274;28;20066;-92
2022/09/30 00:51:26;;;;;;;10.43;5.75;;;;;;;;;;5057388;28;20048;-93
2022/09/30 00:53:53;;;;;;;;;;;;;;;;;;5076506;28;20088;-93
2022/09/30 00:56:24;;;;;;;6.78;5.78;;;;;;;;;;5075949;28;19920;-93
2022/09/30 00:59:04;;;;;;;6.40;5.40;;;;;;;;;;5075978;28;20058;-93
2022/09/30 01:01:32;;;;;;;9.38;5.80;;;;;;;;;;5075923;28;20048;-93
2022/09/30 01:04:01;;;;;;;5.90;5.30;;;;;;;;;;5075618;28;20522;-92
2022/09/30 01:06:29;;;;;;;6.20;5.70;;;;;;;;;;5075980;28;20057;-92
2022/09/30 01:08:57;;;;;;;5.60;5.10;;;;;;;;;;5057955;28;20049;-92
2022/09/30 01:11:26;;;;;;;6.50;5.50;;;;;;;;;;5058480;28;20049;-93
2022/09/30 01:13:55;;;;;;;5.07;4.68;;;;;;;;;;5058148;28;20052;-93
2022/09/30 01:16:22;;;;;;;6.88;5.35;;;;;;;;;;5057914;28;20481;-94
2022/09/30 01:18:50;;;;;;;6.82;6.05;;;;;;;;;;5058120;28;20068;-93
2022/09/30 01:21:38;;;;;;;9.95;7.10;;;;;;;;;;5058539;28;20136;-93
2022/09/30 01:24:08;;;;;;;7.60;6.13;;;;;;;;;;5058265;28;20047;-93
2022/09/30 01:26:52;;;;;;;21.40;7.28;;;;;;;;;;5075504;28;20048;-93
2022/09/30 01:29:28;;;;;;;7.50;6.80;;;;;;;;;;5058040;28;20512;-92
2022/09/30 01:31:55;;;;;;;17.33;7.40;;;;;;;;;;5075323;28;20496;-92
2022/09/30 01:34:23;;;;;;;8.18;7.18;;;;;;;;;;5075551;28;20515;-92
2022/09/30 01:36:50;;;;;;;17.52;9.00;;;;;;;;;;5057641;28;20436;-92
2022/09/30 01:39:26;;;;;;;15.57;8.85;;;;;;;;;;5075537;28;20052;-92
2022/09/30 01:42:03;;;;;;;15.98;9.00;;;;;;;;;;5074542;28;20054;-93
2022/09/30 01:44:38;;;;;;;18.45;8.70;;;;;;;;;;5074946;28;20060;-92
2022/09/30 01:47:19;;;;;;;9.95;7.57;;;;;;;;;;5057565;28;20548;-93
2022/09/30 01:49:48;;;;;;;8.38;7.53;;;;;;;;;;5057088;28;20060;-93
2022/09/30 01:52:15;;;;;;;11.65;7.70;;;;;;;;;;5075106;28;20083;-92
2022/09/30 01:54:49;;;;;;;12.23;7.60;;;;;;;;;;5057306;28;20157;-92
2022/09/30 01:57:16;;;;;;;13.20;7.10;;;;;;;;;;5057237;28;20052;-92
2022/09/30 01:59:46;;;;;;;8.48;7.68;;;;;;;;;;5057151;28;20120;-92
2022/09/30 02:02:18;;;;;;;9.98;8.18;;;;;;;;;;5056807;28;20048;-92
2022/09/30 02:04:58;;;;;;;18.05;8.60;;;;;;;;;;5074661;28;20048;-91
2022/09/30 02:07:30;;;;;;;12.05;8.15;;;;;;;;;;5056962;28;20056;-93
2022/09/30 02:10:03;;;;;;;10.57;6.68;;;;;;;;;;5057011;28;20374;-92
2022/09/30 02:12:34;;;;;;;7.80;7.10;;;;;;;;;;5056746;28;20139;-92
2022/09/30 02:15:05;;;;;;;13.82;7.80;;;;;;;;;;5056690;28;20048;-93
2022/09/30 02:17:35;;;;;;;9.80;7.47;;;;;;;;;;5056698;28;20044;-92
2022/09/30 02:20:05;;;;;;;10.30;7.60;;;;;;;;;;5056733;28;20044;-92
2022/09/30 02:22:42;;;;;;;9.80;7.68;;;;;;;;;;5056506;28;20053;-92
2022/09/30 02:25:11;;;;;;;8.73;7.13;;;;;;;;;;5056709;28;20052;-92
2022/09/30 02:27:41;;;;;;;7.80;7.10;;;;;;;;;;5056570;28;20041;-92
2022/09/30 02:30:10;;;;;;;10.05;8.38;;;;;;;;;;5074218;28;20087;-92
2022/09/30 02:32:40;;;;;;;10.20;7.97;;;;;;;;;;5056469;28;20127;-92
2022/09/30 02:35:10;;;;;;;12.02;7.57;;;;;;;;;;5056260;28;20045;-92
2022/09/30 02:37:43;;;;;;;9.93;8.00;;;;;;;;;;5074171;28;20049;-92
2022/09/30 02:40:10;;;;;;;14.60;9.10;;;;;;;;;;5056726;28;20556;-93
2022/09/30 02:42:40;;;;;;;13.70;8.05;;;;;;;;;;5056713;28;20095;-93
2022/09/30 02:45:09;;;;;;;8.68;7.78;;;;;;;;;;5056160;28;20071;-93
2022/09/30 02:47:44;;;;;;;11.30;7.57;;;;;;;;;;5056385;28;20048;-93
2022/09/30 02:50:46;;;;;;;8.77;7.53;;;;;;;;;;5073887;28;20055;-92
2022/09/30 02:53:28;;;;;;;8.98;7.97;;;;;;;;;;5012390;28;20053;-93
2022/09/30 02:56:19;;;;;;;12.48;7.75;;;;;;;;;;5068029;28;20051;-93
2022/09/30 02:58:49;;;;;;;12.82;7.40;;;;;;;;;;5056261;28;20063;-93
2022/09/30 03:01:16;;;;;;;9.68;6.82;;;;;;;;;;5073877;28;20044;-92
2022/09/30 03:03:52;;;;;;;7.50;6.80;;;;;;;;;;5073694;28;20048;-91
2022/09/30 03:06:20;;;;;;;12.32;8.15;;;;;;;;;;5074001;28;20115;-91
2022/09/30 03:08:47;;;;;;;8.13;7.18;;;;;;;;;;5055937;28;20060;-92
2022/09/30 03:11:16;;;;;;;9.57;7.50;;;;;;;;;;5074343;28;20547;-93
2022/09/30 03:13:52;;;;;;;10.80;8.45;;;;;;;;;;5073802;28;20049;-93
2022/09/30 03:16:28;;;;;;;8.63;6.93;;;;;;;;;;5074598;28;20061;-92
2022/09/30 03:19:14;;;;;;;7.88;7.07;;;;;;;;;;5074084;28;20064;-91
2022/09/30 03:21:47;;;;;;;9.98;8.05;;;;;;;;;;5055676;28;20480;-92
2022/09/30 03:24:30;;;;;;;9.82;7.82;;;;;;;;;;5073827;28;20059;-92
2022/09/30 03:26:58;;;;;;;7.10;6.40;;;;;;;;;;5056041;28;20083;-91
2022/09/30 03:29:31;;;;;;;6.82;6.25;;;;;;;;;;5073544;28;20052;-93
2022/09/30 03:32:04;;;;;;;8.38;7.07;;;;;;;;;;5055495;28;20049;-93
2022/09/30 03:34:36;;;;;;;7.38;6.22;;;;;;;;;;5073704;28;20084;-93
2022/09/30 03:37:22;;;;;;;8.27;7.35;;;;;;;;;;5055988;28;20048;-94
2022/09/30 03:40:10;;;;;;;9.65;7.95;;;;;;;;;;5073437;28;20056;-93
2022/09/30 03:42:40;;;;;;;10.30;8.20;;;;;;;;;;5073586;28;20055;-91
2022/09/30 03:45:22;;;;;;;8.07;7.30;;;;;;;;;;5055739;28;20122;-93
2022/09/30 03:47:52;;;;;;;8.13;7.35;;;;;;;;;;5055999;28;20052;-93
2022/09/30 03:50:21;;;;;;;10.70;8.43;;;;;;;;;;5072951;28;20053;-92
2022/09/30 03:52:49;;;;;;;10.68;7.50;;;;;;;;;;5056094;28;20501;-92
2022/09/30 03:55:18;;;;;;;7.93;7.13;;;;;;;;;;5055849;28;20045;-93
2022/09/30 03:57:45;;;;;;;7.10;6.40;;;;;;;;;;5073493;28;20075;-92
2022/09/30 04:00:13;;;;;;;8.05;7.25;;;;;;;;;;5055797;28;20044;-92
2022/09/30 04:02:40;;;;;;;7.82;6.68;;;;;;;;;;5055468;28;20060;-92
2022/09/30 04:05:08;;;;;;;7.32;6.63;;;;;;;;;;5072843;28;20059;-93
2022/09/30 04:07:36;;;;;;;10.07;7.63;;;;;;;;;;5055435;28;20052;-92
2022/09/30 04:10:03;;;;;;;8.95;7.00;;;;;;;;;;5073011;28;20063;-92
2022/09/30 04:12:30;;;;;;;8.80;7.80;;;;;;;;;;5055671;28;20044;-93
2022/09/30 04:14:58;;;;;;;8.73;7.63;;;;;;;;;;5055245;28;20076;-94
2022/09/30 04:17:25;;;;;;;8.00;7.20;;;;;;;;;;5055363;28;20049;-93
2022/09/30 04:19:52;;;;;;;9.93;7.80;;;;;;;;;;5055429;28;20049;-93
2022/09/30 04:22:20;;;;;;;8.27;7.22;;;;;;;;;;5055529;28;20049;-92
2022/09/30 04:24:52;;;;;;;8.07;7.20;;;;;;;;;;5073827;28;20049;-93
2022/09/30 04:27:19;;;;;;;10.15;8.55;;;;;;;;;;5076566;28;20041;-93
2022/09/30 04:29:46;;;;;;;8.70;7.80;;;;;;;;;;5076352;28;20059;-93
2022/09/30 04:32:13;;;;;;;11.70;9.20;;;;;;;;;;5058722;28;20044;-93
2022/09/30 04:34:41;;;;;;;13.80;7.78;;;;;;;;;;5058861;28;20045;-92
2022/09/30 04:37:08;;;;;;;11.57;7.30;;;;;;;;;;5059027;28;20049;-93
2022/09/30 04:39:37;;;;;;;11.38;10.20;;;;;;;;;;5059444;28;20049;-93
2022/09/30 04:42:05;;;;;;;12.57;7.47;;;;;;;;;;5076294;28;20131;-93
2022/09/30 04:44:34;;;;;;;16.75;8.70;;;;;;;;;;5075922;28;20048;-92
2022/09/30 04:47:01;;;;;;;11.25;8.63;;;;;;;;;;5076206;28;20508;-93
2022/09/30 04:49:28;;;;;;;9.88;7.85;;;;;;;;;;5075833;28;20045;-92
2022/09/30 04:51:55;;;;;;;8.18;6.28;;;;;;;;;;5058589;28;20048;-93
2022/09/30 04:54:23;;;;;;;7.95;7.03;;;;;;;;;;5058395;28;20044;-92
2022/09/30 04:56:51;;;;;;;8.88;7.00;;;;;;;;;;5058316;28;20166;-93
2022/09/30 04:59:18;;;;;;;9.43;7.63;;;;;;;;;;5058445;28;20048;-92
2022/09/30 05:01:45;;;;;;;10.80;7.88;;;;;;;;;;5076031;28;20127;-93
2022/09/30 05:04:12;;;;;;;11.18;7.80;;;;;;;;;;5076350;28;20091;-93
2022/09/30 05:06:40;;;;;;;12.45;9.35;;;;;;;;;;5058507;28;20060;-93
2022/09/30 05:09:07;;;;;;;9.73;7.38;;;;;;;;;;5076698;28;20048;-92
2022/09/30 05:11:36;;;;;;;10.55;7.43;;;;;;;;;;5058269;28;20051;-92
2022/09/30 05:14:07;;;;;;;7.15;6.50;;;;;;;;;;5058202;28;20052;-93
2022/09/30 05:16:35;;;;;;;8.30;6.53;;;;;;;;;;5058528;28;20485;-93
2022/09/30 05:19:02;;;;;;;6.80;6.20;;;;;;;;;;5058384;28;20059;-93
2022/09/30 05:21:29;;;;;;;10.95;7.43;;;;;;;;;;5075583;28;20063;-93
2022/09/30 05:23:57;;;;;;;10.93;7.00;;;;;;;;;;5075773;28;20052;-92
2022/09/30 05:26:24;;;;;;;8.82;6.80;;;;;;;;;;5058422;28;20140;-93
2022/09/30 05:28:52;;;;;;;10.10;8.00;;;;;;;;;;5057810;28;20049;-93
2022/09/30 05:31:21;;;;;;;13.20;7.78;;;;;;;;;;5075434;28;20412;-93
2022/09/30 05:33:50;;;;;;;9.02;7.20;;;;;;;;;;5057718;28;20140;-93
2022/09/30 05:36:23;;;;;;;10.38;7.28;;;;;;;;;;5057993;28;20049;-93
2022/09/30 05:38:51;;;;;;;8.88;7.30;;;;;;;;;;5057235;28;20408;-92
2022/09/30 05:41:20;;;;;;;7.38;6.60;;;;;;;;;;5075563;28;20134;-93
2022/09/30 05:43:48;;;;;;;11.13;7.63;;;;;;;;;;5057510;28;20515;-92
2022/09/30 05:46:16;;;;;;;9.73;7.70;;;;;;;;;;5057627;28;20476;-93
2022/09/30 05:48:44;;;;;;;8.35;7.00;;;;;;;;;;5057531;28;20041;-93
2022/09/30 05:51:11;;;;;;;13.60;9.30;;;;;;;;;;5057392;28;20060;-92
2022/09/30 05:53:39;;;;;;;14.52;8.88;;;;;;;;;;5074895;28;20055;-92
2022/09/30 05:56:09;;;;;;;10.10;7.20;;;;;;;;;;5074920;28;20045;-93
2022/09/30 05:58:39;;;;;;;11.98;7.43;;;;;;;;;;5057152;28;20080;-92
2022/09/30 06:01:08;;;;;;;9.10;8.20;;;;;;;;;;5057295;28;20084;-93
2022/09/30 06:03:40;;;;;;;10.82;7.55;;;;;;;;;;5057814;28;20055;-93
2022/09/30 06:06:07;;;;;;;8.20;5.93;;;;;;;;;;5057072;28;20052;-93
2022/09/30 06:08:35;;;;;;;8.07;7.28;;;;;;;;;;5057106;28;20045;-92
2022/09/30 06:11:10;;;;;;;8.18;7.32;;;;;;;;;;5074455;28;20398;-92
2022/09/30 06:13:38;;;;;;;8.77;7.47;;;;;;;;;;5057057;28;20048;-92
2022/09/30 06:16:06;;;;;;;8.60;7.03;;;;;;;;;;5074356;28;20052;-92
2022/09/30 06:18:34;;;;;;;8.48;7.68;;;;;;;;;;5056974;28;20466;-93
2022/09/30 06:21:03;;;;;;;9.27;7.28;;;;;;;;;;5057449;28;20044;-90
2022/09/30 06:23:31;;;;;;;7.35;6.47;;;;;;;;;;5075833;28;20056;-92
2022/09/30 06:25:58;;;;;;;8.35;7.05;;;;;;;;;;5079866;28;20416;-92
2022/09/30 06:28:26;;;;;;;13.45;7.93;;;;;;;;;;5056655;28;20131;-93
2022/09/30 06:30:53;;;;;;;9.35;7.22;;;;;;;;;;5056482;28;20505;-92
2022/09/30 06:33:20;;;;;;;7.32;6.70;;;;;;;;;;5057082;28;20100;-93
2022/09/30 06:35:48;;;;;;;7.80;7.10;;;;;;;;;;5074189;28;20532;-92
2022/09/30 06:38:15;;;;;;;7.85;7.15;;;;;;;;;;5056699;28;20118;-93
2022/09/30 06:40:43;;;;;;;8.77;7.65;;;;;;;;;;5056430;28;20132;-92
2022/09/30 06:43:10;;;;;;;9.30;7.88;;;;;;;;;;5056611;28;20044;-92
2022/09/30 06:45:38;;;;;;;7.72;7.03;;;;;;;;;;5056146;28;20091;-93
2022/09/30 06:48:07;;;;;;;10.98;6.57;;;;;;;;;;5055720;28;20090;-92
2022/09/30 06:50:36;;;;;;;9.00;6.38;;;;;;;;;;5056413;28;20055;-92
2022/09/30 06:53:07;;;;;;;12.60;8.88;;;;;;;;;;5056124;28;20048;-92
2022/09/30 06:55:37;;;;;;;8.10;7.30;;;;;;;;;;5056532;28;20052;-92
2022/09/30 06:58:14;;;;;;;8.85;7.35;;;;;;;;;;5056061;28;20044;-92
2022/09/30 07:00:44;;;;;;;9.15;7.35;;;;;;;;;;5056715;28;20421;-92
2022/09/30 07:03:21;;;;;;;7.25;6.60;;;;;;;;;;5056387;28;20044;-92
2022/09/30 07:05:56;;;;;;;6.85;6.13;;;;;;;;;;5056126;28;20139;-92
2022/09/30 07:08:24;;;;;;;7.85;6.15;;;;;;;;;;5055663;28;20046;-92
2022/09/30 07:10:52;;;;;;;7.55;5.45;;;;;;;;;;5055784;28;20055;-92
2022/09/30 07:13:19;;;;;;;5.70;5.30;;;;;;;;;;5056149;28;20040;-92
2022/09/30 07:15:46;;;;;;;9.80;5.55;;;;;;;;;;5056070;28;20055;-91
2022/09/30 07:18:19;;;;;;;6.63;5.38;;;;;;;;;;5055684;28;20052;-91
2022/09/30 07:20:50;;;;;;;13.70;6.03;;;;;;;;;;5056837;28;20062;-91
2022/09/30 07:23:20;;;;;;;7.40;5.53;;;;;;;;;;5055990;28;20052;-92
2022/09/30 07:25:55;;;;;;;10.75;5.82;;;;;;;;;;5056811;28;20052;-91
2022/09/30 07:28:30;;;;;;;8.90;5.57;;;;;;;;;;5056647;28;20067;-92
2022/09/30 07:30:58;;;;;;;18.17;5.88;;;;;;;;;;5056557;28;20048;-90
2022/09/30 07:33:50;;;;;;;9.50;5.20;;;;;;;;;;5058768;28;20052;-91
2022/09/30 07:36:18;;;;;;;13.57;5.78;;;;;;;;;;5056380;28;20086;-91
2022/09/30 07:38:50;;;;;;;9.32;5.57;;;;;;;;;;5056236;28;20051;-91
2022/09/30 07:41:20;;;;;;;11.90;5.60;;;;;;;;;;5054227;28;20060;-91
2022/09/30 07:43:49;;;;;;;10.80;5.97;;;;;;;;;;5055516;28;20049;-91
2022/09/30 07:46:19;;;;;;;20.63;5.88;;;;;;;;;;5055303;28;20048;-90
2022/09/30 07:48:50;;;;;;;14.43;5.20;;;;;;;;;;5055626;28;20044;-88
2022/09/30 07:51:22;;;;;;;8.50;4.70;;;;;;;;;;5055694;28;20052;-89
2022/09/30 07:53:53;;;;;;;18.15;4.20;;;;;;;;;;5073817;28;20128;-89
2022/09/30 07:56:22;;;;;;;7.20;3.83;;;;;;;;;;5073825;28;20143;-89
2022/09/30 07:58:59;;;;;;;7.05;2.85;;;;;;;;;;5057471;28;20045;-88
2022/09/30 08:01:28;;;;;;;8.23;2.97;;;;;;;;;;5060075;28;20044;-87
2022/09/30 08:03:58;;;;;;;16.70;3.35;;;;;;;;;;5059829;28;20060;-88
2022/09/30 08:06:26;;;;;;;18.65;4.82;;;;;;;;;;5077028;28;20055;-88
2022/09/30 08:08:54;;;;;;;15.18;4.65;;;;;;;;;;5059379;28;20523;-89
2022/09/30 08:11:22;;;;;;;13.57;5.15;;;;;;;;;;5058842;28;20058;-89
2022/09/30 08:13:50;;;;;;;21.48;6.10;;;;;;;;;;5058995;28;20052;-89
2022/09/30 08:16:18;;;;;;;19.65;5.47;;;;;;;;;;5059435;28;20060;-88
2022/09/30 08:18:45;;;;;;;19.13;4.38;;;;;;;;;;5059403;28;20053;-89
2022/09/30 08:21:13;;;;;;;16.83;5.00;;;;;;;;;;5058901;28;20059;-89
2022/09/30 08:23:40;;;;;;;18.67;4.18;;;;;;;;;;5059121;28;20054;-90
2022/09/30 08:26:09;;;;;;;12.45;3.40;;;;;;;;;;5076668;28;20055;-89
2022/09/30 08:28:37;;;;;;;11.02;4.10;;;;;;;;;;5076881;28;20049;-89
2022/09/30 08:31:04;;;;;;;15.07;3.25;;;;;;;;;;5058945;28;20048;-89
2022/09/30 08:33:31;;;;;;;9.40;2.85;;;;;;;;;;5059259;28;20048;-89
2022/09/30 08:36:03;;;;;;;9.25;2.55;;;;;;;;;;5058906;28;20056;-89
2022/09/30 08:38:30;;;;;;;11.35;2.70;;;;;;;;;;5059025;28;20048;-88
2022/09/30 08:41:17;;;;;;;12.98;2.63;;;;;;;;;;5059147;28;20054;-88
2022/09/30 08:44:03;;;;;;;6.78;2.33;;;;;;;;;;5028806;28;20092;-88
2022/09/30 08:46:39;;;;;;;8.02;2.58;;;;;;;;;;5058855;28;20495;-88
2022/09/30 08:49:07;;;;;;;6.35;2.70;;;;;;;;;;5058483;28;20041;-89
2022/09/30 08:51:37;;;;;;;10.00;3.08;;;;;;;;;;5058758;28;20053;-88
2022/09/30 08:54:06;;;;;;;8.02;2.30;;;;;;;;;;5058554;28;20055;-88
2022/09/30 08:56:33;;;;;;;8.40;2.35;;;;;;;;;;5059377;28;20075;-89
2022/09/30 08:59:05;;;;;;;9.23;2.38;;;;;;;;;;5076883;28;20120;-88
2022/09/30 09:01:34;;;;;;;17.23;4.68;;;;;;;;;;5058504;28;20060;-87
2022/09/30 09:04:02;;;;;;;17.13;4.15;;;;;;;;;;5075838;28;20374;-89
2022/09/30 09:06:29;;;;;;;18.60;3.58;;;;;;;;;;5058019;28;20067;-89
2022/09/30 09:08:56;;;;;;;11.05;2.70;;;;;;;;;;5057893;28;20057;-88
2022/09/30 09:11:39;;;;;;;13.38;2.97;;;;;;;;;;5074806;28;20507;-87
2022/09/30 09:14:17;;;;;;;7.93;2.25;;;;;;;;;;5058419;28;20044;-86
2022/09/30 09:16:50;;;;;;;12.55;2.30;;;;;;;;;;5075760;28;20125;-89
2022/09/30 09:19:22;;;;;;;7.05;1.85;;;;;;;;;;5058388;28;20041;-87
2022/09/30 09:21:55;;;;;;;5.45;1.48;;;;;;;;;;5057863;28;20052;-88
2022/09/30 09:24:27;;;;;;;3.20;1.27;;;;;;;;;;5075480;28;20044;-88
2022/09/30 09:26:56;;;;;;;8.48;1.85;;;;;;;;;;5075674;28;20052;-88
2022/09/30 09:29:29;;;;;;;4.13;1.30;;;;;;;;;;5075317;28;20052;-87
2022/09/30 09:32:00;;;;;;;10.50;1.35;;;;;;;;;;5057844;28;20515;-90
2022/09/30 09:34:28;;;;;;;3.50;1.60;;;;;;;;;;5057719;28;20044;-87
2022/09/30 09:38:23;;;;;;;2.55;1.20;;;;;;;;;;5057367;28;20143;-88
2022/09/30 09:40:23;;;;;;;2.38;0.90;;;;;;;;;;5050456;28;20064;-88
2022/09/30 09:42:57;;;;;;;2.38;0.98;;;;;;;;;;5057602;28;20063;-88
2022/09/30 09:45:25;;;;;;;2.80;1.15;;;;;;;;;;5053748;28;20053;-89
2022/09/30 09:47:52;;;;;;;1.42;0.80;;;;;;;;;;5054049;28;20071;-87
2022/09/30 09:50:25;;;;;;;3.03;0.98;;;;;;;;;;5054925;28;20052;-89
2022/09/30 09:52:59;;;;;;;2.38;0.93;;;;;;;;;;5053878;28;20063;-88
2022/09/30 09:55:26;;;;;;;2.75;0.95;;;;;;;;;;5053861;28;20047;-88
2022/09/30 09:58:06;;;;;;;1.63;0.80;;;;;;;;;;5054605;28;20049;-87
2022/09/30 10:03:22;;;;;;;2.25;0.82;;;;;;;;;;5054943;28;20045;-87
2022/09/30 10:05:58;;;;;;;2.45;0.70;;;;;;;;;;5053621;28;20051;-89
2022/09/30 10:08:25;;;;;;;2.38;0.90;;;;;;;;;;5053697;28;20054;-87
2022/09/30 10:10:54;;;;;;;1.70;0.80;;;;;;;;;;5053349;28;20049;-88
2022/09/30 10:13:23;;;;;;;4.93;1.02;;;;;;;;;;5054465;28;20501;-89
2022/09/30 10:15:52;;;;;;;8.45;1.13;;;;;;;;;;5053142;28;20059;-88
2022/09/30 10:18:31;;;;;;;6.90;0.90;;;;;;;;;;5054378;28;20136;-91
2022/09/30 10:21:00;;;;;;;3.65;0.80;;;;;;;;;;5053432;28;20140;-88
2022/09/30 10:23:31;;;;;;;3.50;0.88;;;;;;;;;;5053126;28;20064;-87
2022/09/30 10:26:02;;;;;;;3.85;0.95;;;;;;;;;;5054051;28;20053;-89
2022/09/30 10:28:31;;;;;;;1.92;0.80;;;;;;;;;;5053377;28;20504;-89
2022/09/30 10:30:58;;;;;;;2.45;0.90;;;;;;;;;;5054101;28;20099;-89
2022/09/30 10:33:29;;;;;;;1.83;0.85;;;;;;;;;;5054220;28;20053;-88
2022/09/30 10:36:00;;;;;;;3.38;0.93;;;;;;;;;;5053038;28;20342;-89
2022/09/30 10:38:28;;;;;;;1.83;0.82;;;;;;;;;;5053149;28;20041;-88
2022/09/30 10:40:56;;;;;;;1.08;0.98;;;;;;;;;;5053019;28;20056;-88
2022/09/30 10:43:25;;;;;;;4.70;1.50;;;;;;;;;;5054068;28;20052;-89
2022/09/30 10:45:53;;;;;;;2.10;1.23;;;;;;;;;;5052620;28;20063;-87
2022/09/30 10:48:41;;;;;;;2.17;0.80;;;;;;;;;;5053648;28;20481;-86
2022/09/30 10:51:20;;;;;;;1.92;1.13;;;;;;;;;;5052877;28;20123;-87
2022/09/30 10:53:48;;;;;;;1.88;0.80;;;;;;;;;;5052819;28;20049;-87
2022/09/30 10:56:30;;;;;;;5.90;1.27;;;;;;;;;;5052602;28;20041;-87
2022/09/30 10:58:58;;;;;;;3.10;1.30;;;;;;;;;;5053598;28;20056;-88
2022/09/30 11:01:37;;;;;;;1.85;1.20;;;;;;;;;;5052540;28;20417;-87
2022/09/30 11:04:12;;;;;;;2.47;1.20;;;;;;;;;;5053972;28;20428;-86
2022/09/30 11:06:40;;;;;;;13.23;1.80;;;;;;;;;;5052957;28;20551;-87
2022/09/30 11:09:10;;;;;;;4.32;1.35;;;;;;;;;;5052754;28;20049;-88
2022/09/30 11:11:48;;;;;;;19.35;3.80;;;;;;;;;;5053413;28;20064;-87
2022/09/30 11:14:21;;;;;;;5.18;2.75;;;;;;;;;;5053361;28;20136;-90
2022/09/30 11:17:07;;;;;;;9.97;1.70;;;;;;;;;;5052976;28;20053;-88
2022/09/30 11:19:39;;;;;;;2.03;0.80;;;;;;;;;;5053458;28;20048;-87
2022/09/30 11:22:15;;;;;;;2.50;0.90;;;;;;;;;;5052248;28;20052;-87
2022/09/30 11:24:45;;;;;;;3.88;1.00;;;;;;;;;;5052060;28;20059;-88
2022/09/30 11:27:15;;;;;;;10.07;1.00;;;;;;;;;;5052146;28;20057;-87
2022/09/30 11:29:49;;;;;;;3.92;1.25;;;;;;;;;;5052297;28;20052;-88
2022/09/30 11:32:35;;;;;;;2.85;0.82;;;;;;;;;;5051985;28;20049;-90
2022/09/30 11:35:07;;;;;;;2.47;0.80;;;;;;;;;;5053227;28;20041;-86
2022/09/30 11:37:45;;;;;;;2.03;0.70;;;;;;;;;;5056332;28;20045;-89
2022/09/30 11:40:21;;;;;;;0.80;0.65;;;;;;;;;;5056313;28;20045;-88
2022/09/30 11:43:09;;;;;;;1.77;0.60;;;;;;;;;;5056232;28;20060;-88
2022/09/30 11:45:36;;;;;;;3.00;0.65;;;;;;;;;;5055972;28;20502;-91
2022/09/30 11:48:12;;;;;;;7.53;1.15;;;;;;;;;;5057554;28;20061;-90
2022/09/30 11:50:54;;;;;;;1.38;0.70;;;;;;;;;;5056208;28;20086;-87
2022/09/30 11:53:28;;;;;;;0.95;0.60;;;;;;;;;;5056101;28;20469;-89
2022/09/30 11:55:56;;;;;;;;;;;;;;;;;;5056564;28;20143;-88
2022/09/30 11:58:25;;;;;;;3.83;1.02;;;;;;;;;;5056071;28;19927;-89
2022/09/30 12:01:07;;;;;;;;;;;;;;;;;;5056501;28;20053;-87
2022/09/30 12:03:37;;;;;;;3.03;0.70;;;;;;;;;;5056974;28;19920;-87
2022/09/30 12:06:10;;;;;;;3.28;1.20;;;;;;;;;;5056783;28;20091;-87
2022/09/30 12:08:40;;;;;;;5.95;0.98;;;;;;;;;;5055792;28;20056;-89
2022/09/30 12:11:10;;;;;;;1.55;1.08;;;;;;;;;;5057092;28;20053;-87
2022/09/30 12:13:39;;;;;;;1.30;0.75;;;;;;;;;;5055873;28;20052;-87
2022/09/30 12:16:10;;;;;;;3.55;0.90;;;;;;;;;;5055644;28;20131;-88
2022/09/30 12:18:39;;;;;;;2.50;0.70;;;;;;;;;;5055481;28;20045;-87
2022/09/30 12:21:19;;;;;;;1.48;0.57;;;;;;;;;;5055731;28;20421;-87
2022/09/30 12:24:05;;;;;;;7.78;0.55;;;;;;;;;;5055534;28;20064;-88
2022/09/30 12:26:33;;;;;;;1.45;0.75;;;;;;;;;;5056583;28;20505;-87
2022/09/30 12:32:10;;;;;;;1.90;0.52;;;;;;;;;;5056405;28;20053;-87
2022/09/30 12:34:41;;;;;;;3.95;0.73;;;;;;;;;;5055435;28;20056;-86
2022/09/30 12:37:11;;;;;;;7.63;0.80;;;;;;;;;;5056141;28;20052;-88
2022/09/30 12:39:45;;;;;;;1.15;0.50;;;;;;;;;;5056225;28;20055;-90
2022/09/30 12:42:35;;;;;;;2.15;0.73;;;;;;;;;;5055634;28;20139;-87
2022/09/30 12:45:19;;;;;;;1.92;0.65;;;;;;;;;;5055126;28;20061;-93
2022/09/30 12:47:55;;;;;;;3.40;0.70;;;;;;;;;;5054686;28;20052;-89
2022/09/30 12:50:23;;;;;;;5.65;0.70;;;;;;;;;;5056047;28;20049;-88
2022/09/30 12:52:51;;;;;;;2.45;0.65;;;;;;;;;;5056158;28;20104;-89
2022/09/30 12:55:38;;;;;;;1.50;0.40;;;;;;;;;;5055016;28;20045;-87
2022/09/30 12:58:06;;;;;;;2.80;0.75;;;;;;;;;;5055175;28;20045;-86
2022/09/30 13:00:36;;;;;;;1.40;0.80;;;;;;;;;;5054628;28;20056;-87
2022/09/30 13:03:14;;;;;;;1.50;0.82;;;;;;;;;;5056069;28;20045;-88
2022/09/30 13:05:42;;;;;;;1.85;0.57;;;;;;;;;;5054882;28;20493;-89
2022/09/30 13:08:15;;;;;;;0.95;0.50;;;;;;;;;;5055757;28;20056;-86
2022/09/30 13:10:53;;;;;;;2.92;0.80;;;;;;;;;;5054856;28;20078;-87
2022/09/30 13:13:23;;;;;;;3.60;0.50;;;;;;;;;;5054563;28;20444;-88
2022/09/30 13:15:51;;;;;;;3.47;0.95;;;;;;;;;;5054634;28;20045;-88
2022/09/30 13:18:18;;;;;;;2.38;1.05;;;;;;;;;;5055904;28;20049;-90
2022/09/30 13:20:56;;;;;;;2.00;0.98;;;;;;;;;;5055644;28;20076;-90
2022/09/30 13:23:43;;;;;;;3.58;0.77;;;;;;;;;;5055446;28;20493;-87
2022/09/30 13:26:23;;;;;;;2.25;0.70;;;;;;;;;;5034655;28;20053;-88
2022/09/30 13:28:51;;;;;;;3.50;0.80;;;;;;;;;;5054484;28;20052;-88
2022/09/30 13:31:24;;;;;;;1.23;0.50;;;;;;;;;;5054487;28;20053;-88
2022/09/30 13:34:11;;;;;;;1.90;0.70;;;;;;;;;;5054402;28;20091;-88
2022/09/30 13:36:38;;;;;;;0.60;0.57;;;;;;;;;;5054321;28;20045;-88
2022/09/30 13:39:14;;;;;;;1.85;0.70;;;;;;;;;;5054163;28;20052;-88
2022/09/30 13:41:43;;;;;;;2.80;0.50;;;;;;;;;;5053001;28;20128;-87
2022/09/30 13:44:16;;;;;;;2.85;0.80;;;;;;;;;;5055167;28;20512;-88
2022/09/30 13:46:48;;;;;;;0.85;0.50;;;;;;;;;;5075262;28;20131;-89
2022/09/30 13:49:17;;;;;;;0.98;0.80;;;;;;;;;;5057764;28;20405;-89
2022/09/30 13:51:45;;;;;;;1.38;0.50;;;;;;;;;;5075149;28;20484;-88
2022/09/30 13:54:26;;;;;;;1.70;0.47;;;;;;;;;;5057789;28;20048;-88
2022/09/30 13:56:54;;;;;;;2.05;0.65;;;;;;;;;;5057331;28;20055;-88
2022/09/30 13:59:30;;;;;;;14.20;1.02;;;;;;;;;;5074600;28;20398;-88
2022/09/30 14:01:58;;;;;;;13.65;1.20;;;;;;;;;;5074915;28;20053;-86
2022/09/30 14:04:46;;;;;;;3.35;0.70;;;;;;;;;;5074694;28;20044;-88
2022/09/30 14:07:28;;;;;;;3.00;0.93;;;;;;;;;;5057119;28;20138;-88
2022/09/30 14:10:10;;;;;;;4.10;0.60;;;;;;;;;;5075010;28;20047;-87
2022/09/30 14:12:55;;;;;;;0.75;0.50;;;;;;;;;;5056698;28;20086;-88
2022/09/30 14:15:26;;;;;;;2.45;0.60;;;;;;;;;;5056858;28;20408;-89
2022/09/30 14:18:05;;;;;;;1.23;0.50;;;;;;;;;;5057037;28;20060;-88
2022/09/30 14:21:08;;;;;;;3.67;0.80;;;;;;;;;;5056926;28;20049;-87
2022/09/30 14:23:35;;;;;;;2.83;0.60;;;;;;;;;;5012719;28;20050;-87
2022/09/30 14:26:21;;;;;;;9.35;0.80;;;;;;;;;;5062615;28;20052;-88
2022/09/30 14:29:04;;;;;;;0.75;0.50;;;;;;;;;;5056772;28;20508;-89
2022/09/30 14:31:32;;;;;;;1.38;0.60;;;;;;;;;;5074285;28;20048;-86
2022/09/30 14:34:00;;;;;;;1.90;0.65;;;;;;;;;;5074240;28;20095;-93
2022/09/30 14:36:27;;;;;;;2.90;0.80;;;;;;;;;;5074448;28;20053;-88
2022/09/30 14:38:59;;;;;;;1.17;0.75;;;;;;;;;;5074399;28;20560;-87
2022/09/30 14:41:28;;;;;;;2.08;0.70;;;;;;;;;;5074453;28;20056;-87
2022/09/30 14:43:57;;;;;;;1.45;0.80;;;;;;;;;;5056596;28;20052;-89
2022/09/30 14:46:28;;;;;;;1.05;0.75;;;;;;;;;;5073671;28;20063;-89
2022/09/30 14:49:00;;;;;;;5.97;1.33;;;;;;;;;;5056548;28;20401;-88
2022/09/30 14:51:28;;;;;;;2.70;0.80;;;;;;;;;;5056484;28;20083;-88
2022/09/30 14:54:03;;;;;;;1.45;0.80;;;;;;;;;;5056739;28;20048;-88
2022/09/30 14:56:34;;;;;;;11.30;8.55;;;;;;;;;;5073888;28;20404;-88
2022/09/30 14:59:16;;;;;;;2.35;2.15;;;;;;;;;;5056556;28;20086;-88
2022/09/30 15:01:44;;;;;;;1.00;0.63;;;;;;;;;;5056389;28;20056;-88
2022/09/30 15:04:14;;;;;;;1.05;0.70;;;;;;;;;;5056009;28;20048;-87
2022/09/30 15:06:49;;;;;;;2.35;1.13;;;;;;;;;;5074077;28;20493;-89
2022/09/30 15:09:18;;;;;;;1.40;0.70;;;;;;;;;;5073480;28;20104;-88
2022/09/30 15:11:45;;;;;;;1.58;0.70;;;;;;;;;;5073433;28;20412;-88
2022/09/30 15:14:24;;;;;;;1.58;0.60;;;;;;;;;;5055941;28;20063;-89